Terminal Aerodrome Forecast
Issued by NWS

Home | Current Version | Previous Version | Text Only | Print | Product List | Glossary On
Versions: 1 2 3 4 5 6 7 8 9 10 11 12 13 14 15 16 17 18 19 20 21 22 23
000
FTUS43 KPAH 172300
TAFOWB
TAF
KOWB 172320Z 1800/1824 29010KT P6SM VCSH SCT025 BKN045
      TEMPO 1800/1803 4SM -SHSN BR BKN025
     FM180600 27008KT P6SM SCT045
     FM181500 26012G19KT P6SM SCT025
     FM181800 25013G21KT P6SM BKN030=

USA.gov is the U.S. government's official web portal to all federal, state and local government web resources and services.